sensor_id;sensor_type;location;lat;lon;timestamp;P1;durP1;ratioP1;P2;durP2;ratioP2
31004;SDS011;17676;52.254;4.490;2022-08-25T00:00:35;33.28;;;29.95;;
31004;SDS011;17676;52.254;4.490;2022-08-25T00:03:01;33.40;;;30.25;;
31004;SDS011;17676;52.254;4.490;2022-08-25T00:05:28;33.50;;;30.38;;
31004;SDS011;17676;52.254;4.490;2022-08-25T00:07:55;32.65;;;29.52;;
31004;SDS011;17676;52.254;4.490;2022-08-25T00:10:21;36.03;;;32.75;;
31004;SDS011;17676;52.254;4.490;2022-08-25T00:12:46;34.97;;;31.73;;
31004;SDS011;17676;52.254;4.490;2022-08-25T00:15:12;33.58;;;30.33;;
31004;SDS011;17676;52.254;4.490;2022-08-25T00:17:37;34.95;;;31.38;;
31004;SDS011;17676;52.254;4.490;2022-08-25T00:20:03;35.20;;;32.25;;
31004;SDS011;17676;52.254;4.490;2022-08-25T00:22:29;35.08;;;31.85;;
31004;SDS011;17676;52.254;4.490;2022-08-25T00:24:55;33.63;;;30.65;;
31004;SDS011;17676;52.254;4.490;2022-08-25T00:27:20;34.65;;;31.38;;
31004;SDS011;17676;52.254;4.490;2022-08-25T00:29:46;33.65;;;30.70;;
31004;SDS011;17676;52.254;4.490;2022-08-25T00:32:11;33.05;;;30.00;;
31004;SDS011;17676;52.254;4.490;2022-08-25T00:34:37;34.67;;;31.52;;
31004;SDS011;17676;52.254;4.490;2022-08-25T00:37:04;33.50;;;30.20;;
31004;SDS011;17676;52.254;4.490;2022-08-25T00:39:34;32.75;;;29.88;;
31004;SDS011;17676;52.254;4.490;2022-08-25T00:42:00;34.28;;;31.30;;
31004;SDS011;17676;52.254;4.490;2022-08-25T00:44:28;32.22;;;29.20;;
31004;SDS011;17676;52.254;4.490;2022-08-25T00:46:56;34.38;;;31.15;;
31004;SDS011;17676;52.254;4.490;2022-08-25T00:49:24;37.25;;;33.78;;
31004;SDS011;17676;52.254;4.490;2022-08-25T00:52:04;34.92;;;31.67;;
31004;SDS011;17676;52.254;4.490;2022-08-25T00:54:40;32.03;;;29.10;;
31004;SDS011;17676;52.254;4.490;2022-08-25T00:57:10;37.35;;;34.05;;
31004;SDS011;17676;52.254;4.490;2022-08-25T00:59:38;36.97;;;33.70;;
31004;SDS011;17676;52.254;4.490;2022-08-25T01:02:05;37.95;;;34.55;;
31004;SDS011;17676;52.254;4.490;2022-08-25T01:04:31;36.63;;;33.22;;
31004;SDS011;17676;52.254;4.490;2022-08-25T01:06:57;34.95;;;31.90;;
31004;SDS011;17676;52.254;4.490;2022-08-25T01:09:24;38.83;;;35.33;;
31004;SDS011;17676;52.254;4.490;2022-08-25T01:11:50;37.72;;;34.30;;
31004;SDS011;17676;52.254;4.490;2022-08-25T01:14:17;37.60;;;34.38;;
31004;SDS011;17676;52.254;4.490;2022-08-25T01:16:45;38.42;;;34.78;;
31004;SDS011;17676;52.254;4.490;2022-08-25T01:19:12;39.15;;;35.65;;
31004;SDS011;17676;52.254;4.490;2022-08-25T01:21:41;37.33;;;34.05;;
31004;SDS011;17676;52.254;4.490;2022-08-25T01:24:09;40.13;;;36.50;;
31004;SDS011;17676;52.254;4.490;2022-08-25T01:26:40;39.15;;;35.67;;
31004;SDS011;17676;52.254;4.490;2022-08-25T01:29:07;37.40;;;34.25;;
31004;SDS011;17676;52.254;4.490;2022-08-25T01:31:45;35.50;;;32.45;;
31004;SDS011;17676;52.254;4.490;2022-08-25T01:34:11;39.30;;;36.08;;
31004;SDS011;17676;52.254;4.490;2022-08-25T01:36:38;40.78;;;36.72;;
31004;SDS011;17676;52.254;4.490;2022-08-25T01:39:04;38.22;;;34.95;;
31004;SDS011;17676;52.254;4.490;2022-08-25T01:43:58;39.35;;;36.05;;
31004;SDS011;17676;52.254;4.490;2022-08-25T01:46:24;41.40;;;37.63;;
31004;SDS011;17676;52.254;4.490;2022-08-25T01:48:51;40.78;;;37.03;;
31004;SDS011;17676;52.254;4.490;2022-08-25T01:51:18;36.50;;;33.03;;
31004;SDS011;17676;52.254;4.490;2022-08-25T01:53:45;38.58;;;35.30;;
31004;SDS011;17676;52.254;4.490;2022-08-25T01:56:12;42.20;;;38.63;;
31004;SDS011;17676;52.254;4.490;2022-08-25T01:58:42;42.58;;;38.65;;
31004;SDS011;17676;52.254;4.490;2022-08-25T02:01:13;40.08;;;36.63;;
31004;SDS011;17676;52.254;4.490;2022-08-25T02:03:43;34.35;;;31.25;;
31004;SDS011;17676;52.254;4.490;2022-08-25T02:06:13;39.40;;;36.03;;
31004;SDS011;17676;52.254;4.490;2022-08-25T02:08:40;38.55;;;34.40;;
31004;SDS011;17676;52.254;4.490;2022-08-25T02:11:08;43.30;;;38.92;;
31004;SDS011;17676;52.254;4.490;2022-08-25T02:13:36;41.78;;;37.95;;
31004;SDS011;17676;52.254;4.490;2022-08-25T02:16:01;40.78;;;36.88;;
31004;SDS011;17676;52.254;4.490;2022-08-25T02:18:27;39.97;;;36.60;;
31004;SDS011;17676;52.254;4.490;2022-08-25T02:20:53;37.85;;;34.33;;
31004;SDS011;17676;52.254;4.490;2022-08-25T02:23:19;39.65;;;35.90;;
31004;SDS011;17676;52.254;4.490;2022-08-25T02:25:44;40.15;;;36.60;;
31004;SDS011;17676;52.254;4.490;2022-08-25T02:28:10;37.63;;;34.28;;
31004;SDS011;17676;52.254;4.490;2022-08-25T02:30:36;38.25;;;34.63;;
31004;SDS011;17676;52.254;4.490;2022-08-25T02:33:04;36.60;;;33.50;;
31004;SDS011;17676;52.254;4.490;2022-08-25T02:35:29;36.70;;;33.35;;
31004;SDS011;17676;52.254;4.490;2022-08-25T02:37:55;39.20;;;35.65;;
31004;SDS011;17676;52.254;4.490;2022-08-25T02:40:20;37.80;;;34.47;;
31004;SDS011;17676;52.254;4.490;2022-08-25T02:42:46;36.13;;;32.92;;
31004;SDS011;17676;52.254;4.490;2022-08-25T02:45:14;37.13;;;33.70;;
31004;SDS011;17676;52.254;4.490;2022-08-25T02:47:39;36.83;;;33.45;;
31004;SDS011;17676;52.254;4.490;2022-08-25T02:50:06;39.72;;;36.10;;
31004;SDS011;17676;52.254;4.490;2022-08-25T02:52:32;38.63;;;34.80;;
31004;SDS011;17676;52.254;4.490;2022-08-25T02:54:59;38.83;;;35.33;;
31004;SDS011;17676;52.254;4.490;2022-08-25T02:57:29;38.08;;;34.78;;
31004;SDS011;17676;52.254;4.490;2022-08-25T02:59:54;38.83;;;35.42;;
31004;SDS011;17676;52.254;4.490;2022-08-25T03:02:20;38.17;;;34.60;;
31004;SDS011;17676;52.254;4.490;2022-08-25T03:04:45;39.95;;;36.50;;
31004;SDS011;17676;52.254;4.490;2022-08-25T03:07:11;41.45;;;37.85;;
31004;SDS011;17676;52.254;4.490;2022-08-25T03:09:37;36.33;;;33.15;;
31004;SDS011;17676;52.254;4.490;2022-08-25T03:12:03;36.28;;;33.08;;
31004;SDS011;17676;52.254;4.490;2022-08-25T03:14:28;35.35;;;32.38;;
31004;SDS011;17676;52.254;4.490;2022-08-25T03:16:54;38.03;;;34.67;;
31004;SDS011;17676;52.254;4.490;2022-08-25T03:19:20;37.67;;;33.67;;
31004;SDS011;17676;52.254;4.490;2022-08-25T03:21:45;36.92;;;33.65;;
31004;SDS011;17676;52.254;4.490;2022-08-25T03:24:11;33.47;;;30.55;;
31004;SDS011;17676;52.254;4.490;2022-08-25T03:26:37;35.58;;;32.00;;
31004;SDS011;17676;52.254;4.490;2022-08-25T03:29:20;34.70;;;31.13;;
31004;SDS011;17676;52.254;4.490;2022-08-25T03:31:47;30.83;;;28.08;;
31004;SDS011;17676;52.254;4.490;2022-08-25T03:34:14;28.08;;;25.67;;
31004;SDS011;17676;52.254;4.490;2022-08-25T03:36:40;28.40;;;25.85;;
31004;SDS011;17676;52.254;4.490;2022-08-25T03:39:06;26.15;;;23.83;;
31004;SDS011;17676;52.254;4.490;2022-08-25T03:41:33;29.42;;;26.67;;
31004;SDS011;17676;52.254;4.490;2022-08-25T03:43:59;26.35;;;23.90;;
31004;SDS011;17676;52.254;4.490;2022-08-25T03:46:28;25.88;;;24.02;;
31004;SDS011;17676;52.254;4.490;2022-08-25T03:48:56;25.45;;;23.25;;
31004;SDS011;17676;52.254;4.490;2022-08-25T03:51:25;25.98;;;23.50;;
31004;SDS011;17676;52.254;4.490;2022-08-25T03:53:52;25.15;;;22.83;;
31004;SDS011;17676;52.254;4.490;2022-08-25T03:56:18;23.05;;;21.00;;
31004;SDS011;17676;52.254;4.490;2022-08-25T03:58:44;21.05;;;19.00;;
31004;SDS011;17676;52.254;4.490;2022-08-25T04:01:10;21.58;;;19.67;;
31004;SDS011;17676;52.254;4.490;2022-08-25T04:03:36;20.63;;;18.63;;
31004;SDS011;17676;52.254;4.490;2022-08-25T04:06:02;19.33;;;17.75;;
31004;SDS011;17676;52.254;4.490;2022-08-25T04:08:29;17.88;;;16.27;;
31004;SDS011;17676;52.254;4.490;2022-08-25T04:10:55;18.05;;;16.45;;
31004;SDS011;17676;52.254;4.490;2022-08-25T04:13:20;16.38;;;15.18;;
31004;SDS011;17676;52.254;4.490;2022-08-25T04:15:46;17.15;;;15.45;;
31004;SDS011;17676;52.254;4.490;2022-08-25T04:18:12;15.43;;;14.15;;
31004;SDS011;17676;52.254;4.490;2022-08-25T04:20:41;14.38;;;13.18;;
31004;SDS011;17676;52.254;4.490;2022-08-25T04:23:08;14.05;;;12.88;;
31004;SDS011;17676;52.254;4.490;2022-08-25T04:25:34;14.45;;;13.10;;
31004;SDS011;17676;52.254;4.490;2022-08-25T04:28:06;13.38;;;12.13;;
31004;SDS011;17676;52.254;4.490;2022-08-25T04:30:31;15.15;;;13.57;;
31004;SDS011;17676;52.254;4.490;2022-08-25T04:32:57;12.80;;;11.60;;
31004;SDS011;17676;52.254;4.490;2022-08-25T04:35:22;13.55;;;12.32;;
31004;SDS011;17676;52.254;4.490;2022-08-25T04:37:48;13.52;;;12.13;;
31004;SDS011;17676;52.254;4.490;2022-08-25T04:40:13;12.65;;;11.52;;
31004;SDS011;17676;52.254;4.490;2022-08-25T04:42:39;12.70;;;11.35;;
31004;SDS011;17676;52.254;4.490;2022-08-25T04:45:04;11.88;;;10.68;;
31004;SDS011;17676;52.254;4.490;2022-08-25T04:47:30;11.60;;;10.68;;
31004;SDS011;17676;52.254;4.490;2022-08-25T04:50:00;13.07;;;11.98;;
31004;SDS011;17676;52.254;4.490;2022-08-25T04:52:25;13.85;;;12.45;;
31004;SDS011;17676;52.254;4.490;2022-08-25T04:54:50;12.82;;;11.60;;
31004;SDS011;17676;52.254;4.490;2022-08-25T04:57:16;11.68;;;10.60;;
31004;SDS011;17676;52.254;4.490;2022-08-25T04:59:41;11.38;;;10.50;;
31004;SDS011;17676;52.254;4.490;2022-08-25T05:02:07;13.88;;;12.15;;
31004;SDS011;17676;52.254;4.490;2022-08-25T05:04:34;13.02;;;11.85;;
31004;SDS011;17676;52.254;4.490;2022-08-25T05:07:00;13.85;;;11.77;;
31004;SDS011;17676;52.254;4.490;2022-08-25T05:09:26;12.70;;;11.18;;
31004;SDS011;17676;52.254;4.490;2022-08-25T05:11:52;13.70;;;12.30;;
31004;SDS011;17676;52.254;4.490;2022-08-25T05:14:19;11.40;;;10.30;;
31004;SDS011;17676;52.254;4.490;2022-08-25T05:16:46;12.25;;;11.25;;
31004;SDS011;17676;52.254;4.490;2022-08-25T05:19:12;12.32;;;11.18;;
31004;SDS011;17676;52.254;4.490;2022-08-25T05:21:38;11.38;;;10.48;;
31004;SDS011;17676;52.254;4.490;2022-08-25T05:24:03;11.00;;;10.02;;
31004;SDS011;17676;52.254;4.490;2022-08-25T05:26:30;14.30;;;11.82;;
31004;SDS011;17676;52.254;4.490;2022-08-25T05:28:56;14.05;;;11.23;;
31004;SDS011;17676;52.254;4.490;2022-08-25T05:31:23;14.60;;;11.13;;
31004;SDS011;17676;52.254;4.490;2022-08-25T05:33:50;12.32;;;10.45;;
31004;SDS011;17676;52.254;4.490;2022-08-25T05:36:17;11.98;;;11.00;;
31004;SDS011;17676;52.254;4.490;2022-08-25T05:38:44;12.63;;;10.85;;
31004;SDS011;17676;52.254;4.490;2022-08-25T05:41:11;12.52;;;10.32;;
31004;SDS011;17676;52.254;4.490;2022-08-25T05:43:40;13.70;;;9.55;;
31004;SDS011;17676;52.254;4.490;2022-08-25T05:46:06;15.40;;;10.13;;
31004;SDS011;17676;52.254;4.490;2022-08-25T05:48:32;14.70;;;10.20;;
31004;SDS011;17676;52.254;4.490;2022-08-25T05:50:58;10.43;;;9.40;;
31004;SDS011;17676;52.254;4.490;2022-08-25T05:53:25;10.77;;;9.65;;
31004;SDS011;17676;52.254;4.490;2022-08-25T05:55:52;11.23;;;9.85;;
31004;SDS011;17676;52.254;4.490;2022-08-25T05:58:20;12.48;;;10.80;;
31004;SDS011;17676;52.254;4.490;2022-08-25T06:00:46;11.60;;;10.48;;
31004;SDS011;17676;52.254;4.490;2022-08-25T06:03:12;10.60;;;9.60;;
31004;SDS011;17676;52.254;4.490;2022-08-25T06:05:38;12.18;;;10.95;;
31004;SDS011;17676;52.254;4.490;2022-08-25T06:08:03;10.02;;;8.95;;
31004;SDS011;17676;52.254;4.490;2022-08-25T06:10:29;10.52;;;9.60;;
31004;SDS011;17676;52.254;4.490;2022-08-25T06:12:54;10.70;;;8.88;;
31004;SDS011;17676;52.254;4.490;2022-08-25T06:15:21;13.27;;;9.40;;
31004;SDS011;17676;52.254;4.490;2022-08-25T06:17:48;10.57;;;9.57;;
31004;SDS011;17676;52.254;4.490;2022-08-25T06:20:15;9.85;;;8.88;;
31004;SDS011;17676;52.254;4.490;2022-08-25T06:22:43;10.98;;;9.02;;
31004;SDS011;17676;52.254;4.490;2022-08-25T06:25:10;10.18;;;9.38;;
31004;SDS011;17676;52.254;4.490;2022-08-25T06:27:37;12.15;;;9.60;;
31004;SDS011;17676;52.254;4.490;2022-08-25T06:30:04;10.18;;;9.43;;
31004;SDS011;17676;52.254;4.490;2022-08-25T06:32:31;10.32;;;9.32;;
31004;SDS011;17676;52.254;4.490;2022-08-25T06:35:02;10.60;;;9.60;;
31004;SDS011;17676;52.254;4.490;2022-08-25T06:37:28;10.88;;;9.80;;
31004;SDS011;17676;52.254;4.490;2022-08-25T06:39:54;10.50;;;9.50;;
31004;SDS011;17676;52.254;4.490;2022-08-25T06:42:19;13.02;;;9.38;;
31004;SDS011;17676;52.254;4.490;2022-08-25T06:44:45;11.38;;;9.60;;
31004;SDS011;17676;52.254;4.490;2022-08-25T06:47:11;10.15;;;9.25;;
31004;SDS011;17676;52.254;4.490;2022-08-25T06:49:36;14.55;;;9.13;;
31004;SDS011;17676;52.254;4.490;2022-08-25T06:52:03;12.93;;;9.07;;
31004;SDS011;17676;52.254;4.490;2022-08-25T06:54:28;10.45;;;8.70;;
31004;SDS011;17676;52.254;4.490;2022-08-25T06:56:54;10.02;;;8.63;;
31004;SDS011;17676;52.254;4.490;2022-08-25T06:59:19;10.35;;;8.18;;
31004;SDS011;17676;52.254;4.490;2022-08-25T07:01:45;11.25;;;8.10;;
31004;SDS011;17676;52.254;4.490;2022-08-25T07:04:11;12.60;;;8.35;;
31004;SDS011;17676;52.254;4.490;2022-08-25T07:06:36;12.30;;;7.68;;
31004;SDS011;17676;52.254;4.490;2022-08-25T07:09:03;11.00;;;7.45;;
31004;SDS011;17676;52.254;4.490;2022-08-25T07:11:30;8.65;;;7.72;;
31004;SDS011;17676;52.254;4.490;2022-08-25T07:13:58;7.55;;;6.85;;
31004;SDS011;17676;52.254;4.490;2022-08-25T07:16:24;9.35;;;6.78;;
31004;SDS011;17676;52.254;4.490;2022-08-25T07:18:50;11.65;;;6.28;;
31004;SDS011;17676;52.254;4.490;2022-08-25T07:21:17;17.40;;;5.95;;
31004;SDS011;17676;52.254;4.490;2022-08-25T07:23:42;8.57;;;5.05;;
31004;SDS011;17676;52.254;4.490;2022-08-25T07:28:43;8.23;;;4.68;;
31004;SDS011;17676;52.254;4.490;2022-08-25T07:31:09;5.55;;;4.30;;
31004;SDS011;17676;52.254;4.490;2022-08-25T07:33:35;7.40;;;4.28;;
31004;SDS011;17676;52.254;4.490;2022-08-25T07:36:00;6.40;;;3.95;;
31004;SDS011;17676;52.254;4.490;2022-08-25T07:38:26;5.90;;;4.40;;
31004;SDS011;17676;52.254;4.490;2022-08-25T07:40:52;4.18;;;3.78;;
31004;SDS011;17676;52.254;4.490;2022-08-25T07:43:26;9.50;;;3.50;;
31004;SDS011;17676;52.254;4.490;2022-08-25T07:45:51;5.53;;;2.58;;
31004;SDS011;17676;52.254;4.490;2022-08-25T07:48:17;9.98;;;3.28;;
31004;SDS011;17676;52.254;4.490;2022-08-25T07:50:44;8.10;;;3.22;;
31004;SDS011;17676;52.254;4.490;2022-08-25T07:53:12;6.15;;;2.88;;
31004;SDS011;17676;52.254;4.490;2022-08-25T07:55:38;9.27;;;3.22;;
31004;SDS011;17676;52.254;4.490;2022-08-25T07:58:05;4.68;;;3.40;;
31004;SDS011;17676;52.254;4.490;2022-08-25T08:00:33;5.45;;;3.55;;
31004;SDS011;17676;52.254;4.490;2022-08-25T08:03:01;4.90;;;3.00;;
31004;SDS011;17676;52.254;4.490;2022-08-25T08:05:31;6.22;;;3.05;;
31004;SDS011;17676;52.254;4.490;2022-08-25T08:07:56;7.35;;;3.15;;
31004;SDS011;17676;52.254;4.490;2022-08-25T08:10:22;4.68;;;2.55;;
31004;SDS011;17676;52.254;4.490;2022-08-25T08:12:49;6.03;;;3.38;;
31004;SDS011;17676;52.254;4.490;2022-08-25T08:15:15;6.70;;;2.80;;
31004;SDS011;17676;52.254;4.490;2022-08-25T08:17:40;6.97;;;2.38;;
31004;SDS011;17676;52.254;4.490;2022-08-25T08:20:06;6.93;;;2.78;;
31004;SDS011;17676;52.254;4.490;2022-08-25T08:22:35;3.08;;;2.60;;
31004;SDS011;17676;52.254;4.490;2022-08-25T08:25:02;5.30;;;2.70;;
31004;SDS011;17676;52.254;4.490;2022-08-25T08:27:29;4.10;;;2.15;;
31004;SDS011;17676;52.254;4.490;2022-08-25T08:29:54;5.38;;;2.58;;
31004;SDS011;17676;52.254;4.490;2022-08-25T08:32:20;6.68;;;2.20;;
31004;SDS011;17676;52.254;4.490;2022-08-25T08:34:45;8.93;;;2.42;;
31004;SDS011;17676;52.254;4.490;2022-08-25T08:37:11;5.50;;;2.17;;
31004;SDS011;17676;52.254;4.490;2022-08-25T08:39:38;8.25;;;2.58;;
31004;SDS011;17676;52.254;4.490;2022-08-25T08:50:55;5.30;;;1.95;;
31004;SDS011;17676;52.254;4.490;2022-08-25T08:56:18;4.68;;;2.50;;
31004;SDS011;17676;52.254;4.490;2022-08-25T08:58:53;5.15;;;2.40;;
31004;SDS011;17676;52.254;4.490;2022-08-25T09:01:41;5.07;;;2.42;;
31004;SDS011;17676;52.254;4.490;2022-08-25T09:04:19;7.53;;;2.47;;
31004;SDS011;17676;52.254;4.490;2022-08-25T09:07:10;6.30;;;2.20;;
31004;SDS011;17676;52.254;4.490;2022-08-25T09:09:39;6.32;;;1.85;;
31004;SDS011;17676;52.254;4.490;2022-08-25T09:23:48;5.32;;;1.58;;
31004;SDS011;17676;52.254;4.490;2022-08-25T09:26:36;3.92;;;1.25;;
31004;SDS011;17676;52.254;4.490;2022-08-25T09:29:12;4.03;;;1.08;;
31004;SDS011;17676;52.254;4.490;2022-08-25T09:31:43;2.97;;;1.00;;
31004;SDS011;17676;52.254;4.490;2022-08-25T09:34:15;3.85;;;0.80;;
31004;SDS011;17676;52.254;4.490;2022-08-25T09:36:43;4.20;;;1.00;;
31004;SDS011;17676;52.254;4.490;2022-08-25T09:39:11;8.32;;;1.00;;
31004;SDS011;17676;52.254;4.490;2022-08-25T09:41:45;3.63;;;0.63;;
31004;SDS011;17676;52.254;4.490;2022-08-25T09:44:19;4.13;;;0.80;;
31004;SDS011;17676;52.254;4.490;2022-08-25T09:46:55;2.47;;;0.88;;
31004;SDS011;17676;52.254;4.490;2022-08-25T09:49:41;3.08;;;1.00;;
31004;SDS011;17676;52.254;4.490;2022-08-25T09:54:53;5.07;;;0.90;;
31004;SDS011;17676;52.254;4.490;2022-08-25T09:57:27;6.45;;;1.20;;
31004;SDS011;17676;52.254;4.490;2022-08-25T10:00:20;1.73;;;0.70;;
31004;SDS011;17676;52.254;4.490;2022-08-25T10:08:25;5.20;;;0.90;;
31004;SDS011;17676;52.254;4.490;2022-08-25T10:10:57;7.75;;;1.60;;
31004;SDS011;17676;52.254;4.490;2022-08-25T10:13:39;2.53;;;0.80;;
31004;SDS011;17676;52.254;4.490;2022-08-25T10:16:12;5.97;;;1.13;;
31004;SDS011;17676;52.254;4.490;2022-08-25T10:18:58;1.30;;;0.60;;
31004;SDS011;17676;52.254;4.490;2022-08-25T10:21:44;3.92;;;1.00;;
31004;SDS011;17676;52.254;4.490;2022-08-25T10:24:27;2.10;;;0.60;;
31004;SDS011;17676;52.254;4.490;2022-08-25T10:26:54;5.65;;;0.90;;
31004;SDS011;17676;52.254;4.490;2022-08-25T10:35:01;2.85;;;0.50;;
31004;SDS011;17676;52.254;4.490;2022-08-25T10:40:39;2.55;;;0.63;;
31004;SDS011;17676;52.254;4.490;2022-08-25T10:45:37;2.53;;;0.40;;
31004;SDS011;17676;52.254;4.490;2022-08-25T10:57:01;7.65;;;0.52;;
31004;SDS011;17676;52.254;4.490;2022-08-25T11:07:36;2.35;;;0.52;;
31004;SDS011;17676;52.254;4.490;2022-08-25T11:10:11;2.13;;;0.52;;
31004;SDS011;17676;52.254;4.490;2022-08-25T11:12:43;2.20;;;0.70;;
31004;SDS011;17676;52.254;4.490;2022-08-25T11:17:50;2.58;;;0.50;;
31004;SDS011;17676;52.254;4.490;2022-08-25T11:20:23;6.72;;;1.13;;
31004;SDS011;17676;52.254;4.490;2022-08-25T11:25:34;4.47;;;0.50;;
31004;SDS011;17676;52.254;4.490;2022-08-25T11:28:06;2.60;;;0.70;;
31004;SDS011;17676;52.254;4.490;2022-08-25T11:30:37;2.03;;;0.65;;
31004;SDS011;17676;52.254;4.490;2022-08-25T11:33:02;2.20;;;0.52;;
31004;SDS011;17676;52.254;4.490;2022-08-25T11:35:37;10.05;;;0.68;;
31004;SDS011;17676;52.254;4.490;2022-08-25T11:41:04;4.68;;;0.60;;
31004;SDS011;17676;52.254;4.490;2022-08-25T11:49:27;6.53;;;0.98;;
31004;SDS011;17676;52.254;4.490;2022-08-25T11:51:58;8.25;;;2.00;;
31004;SDS011;17676;52.254;4.490;2022-08-25T11:57:09;3.13;;;0.95;;
31004;SDS011;17676;52.254;4.490;2022-08-25T12:04:54;3.72;;;0.80;;
31004;SDS011;17676;52.254;4.490;2022-08-25T12:07:24;2.15;;;1.17;;
31004;SDS011;17676;52.254;4.490;2022-08-25T12:12:27;3.03;;;1.63;;
31004;SDS011;17676;52.254;4.490;2022-08-25T12:18:08;4.53;;;1.27;;
31004;SDS011;17676;52.254;4.490;2022-08-25T12:31:18;3.60;;;1.50;;
31004;SDS011;17676;52.254;4.490;2022-08-25T12:34:02;4.30;;;1.90;;
31004;SDS011;17676;52.254;4.490;2022-08-25T12:36:58;4.45;;;2.65;;
31004;SDS011;17676;52.254;4.490;2022-08-25T12:39:29;6.53;;;2.95;;
31004;SDS011;17676;52.254;4.490;2022-08-25T12:42:01;6.43;;;3.20;;
31004;SDS011;17676;52.254;4.490;2022-08-25T12:44:32;3.92;;;2.90;;
31004;SDS011;17676;52.254;4.490;2022-08-25T12:47:13;10.02;;;5.53;;
31004;SDS011;17676;52.254;4.490;2022-08-25T12:58:47;11.73;;;8.32;;
31004;SDS011;17676;52.254;4.490;2022-08-25T13:01:37;11.90;;;9.00;;
31004;SDS011;17676;52.254;4.490;2022-08-25T13:07:31;11.57;;;10.48;;
31004;SDS011;17676;52.254;4.490;2022-08-25T13:10:27;15.23;;;11.15;;
31004;SDS011;17676;52.254;4.490;2022-08-25T13:15:41;13.85;;;12.00;;
31004;SDS011;17676;52.254;4.490;2022-08-25T13:18:25;11.55;;;10.63;;
31004;SDS011;17676;52.254;4.490;2022-08-25T13:21:16;18.88;;;13.25;;
31004;SDS011;17676;52.254;4.490;2022-08-25T13:23:45;14.50;;;11.85;;
31004;SDS011;17676;52.254;4.490;2022-08-25T13:26:21;15.02;;;13.63;;
31004;SDS011;17676;52.254;4.490;2022-08-25T13:28:50;15.52;;;13.90;;
31004;SDS011;17676;52.254;4.490;2022-08-25T13:31:22;13.10;;;11.80;;
31004;SDS011;17676;52.254;4.490;2022-08-25T13:33:53;17.83;;;14.75;;
31004;SDS011;17676;52.254;4.490;2022-08-25T13:36:22;14.40;;;12.10;;
31004;SDS011;17676;52.254;4.490;2022-08-25T13:39:14;23.50;;;15.43;;
31004;SDS011;17676;52.254;4.490;2022-08-25T13:41:45;14.55;;;12.77;;
31004;SDS011;17676;52.254;4.490;2022-08-25T13:44:14;17.00;;;13.68;;
31004;SDS011;17676;52.254;4.490;2022-08-25T13:46:41;13.35;;;12.05;;
31004;SDS011;17676;52.254;4.490;2022-08-25T13:49:07;17.60;;;15.55;;
31004;SDS011;17676;52.254;4.490;2022-08-25T13:51:34;17.38;;;15.13;;
31004;SDS011;17676;52.254;4.490;2022-08-25T13:54:02;17.27;;;15.43;;
31004;SDS011;17676;52.254;4.490;2022-08-25T13:56:36;17.55;;;16.08;;
31004;SDS011;17676;52.254;4.490;2022-08-25T13:59:06;20.88;;;18.73;;
31004;SDS011;17676;52.254;4.490;2022-08-25T14:01:51;22.95;;;20.75;;
31004;SDS011;17676;52.254;4.490;2022-08-25T14:04:25;24.95;;;22.73;;
31004;SDS011;17676;52.254;4.490;2022-08-25T14:09:55;25.92;;;23.45;;
31004;SDS011;17676;52.254;4.490;2022-08-25T14:12:33;27.75;;;25.00;;
31004;SDS011;17676;52.254;4.490;2022-08-25T14:18:04;27.35;;;24.75;;
31004;SDS011;17676;52.254;4.490;2022-08-25T14:20:34;28.33;;;25.45;;
31004;SDS011;17676;52.254;4.490;2022-08-25T14:23:05;27.15;;;24.75;;
31004;SDS011;17676;52.254;4.490;2022-08-25T14:25:33;29.67;;;26.67;;
31004;SDS011;17676;52.254;4.490;2022-08-25T14:28:03;28.40;;;25.65;;
31004;SDS011;17676;52.254;4.490;2022-08-25T14:30:30;27.70;;;25.30;;
31004;SDS011;17676;52.254;4.490;2022-08-25T14:32:59;26.73;;;24.02;;
31004;SDS011;17676;52.254;4.490;2022-08-25T14:35:26;28.60;;;26.15;;
31004;SDS011;17676;52.254;4.490;2022-08-25T14:37:53;30.33;;;27.48;;
31004;SDS011;17676;52.254;4.490;2022-08-25T14:40:19;33.65;;;30.65;;
31004;SDS011;17676;52.254;4.490;2022-08-25T14:42:46;39.42;;;35.97;;
31004;SDS011;17676;52.254;4.490;2022-08-25T14:45:13;40.95;;;35.78;;
31004;SDS011;17676;52.254;4.490;2022-08-25T14:47:42;39.15;;;35.38;;
31004;SDS011;17676;52.254;4.490;2022-08-25T14:50:10;40.35;;;36.83;;
31004;SDS011;17676;52.254;4.490;2022-08-25T14:52:37;42.97;;;38.88;;
31004;SDS011;17676;52.254;4.490;2022-08-25T14:55:02;42.28;;;38.28;;
31004;SDS011;17676;52.254;4.490;2022-08-25T14:57:28;45.40;;;41.35;;
31004;SDS011;17676;52.254;4.490;2022-08-25T14:59:54;43.75;;;39.72;;
31004;SDS011;17676;52.254;4.490;2022-08-25T15:02:21;44.78;;;40.53;;
31004;SDS011;17676;52.254;4.490;2022-08-25T15:04:55;44.72;;;40.63;;
31004;SDS011;17676;52.254;4.490;2022-08-25T15:07:23;48.40;;;43.40;;
31004;SDS011;17676;52.254;4.490;2022-08-25T15:10:08;45.92;;;41.53;;
31004;SDS011;17676;52.254;4.490;2022-08-25T15:12:34;53.85;;;48.35;;
31004;SDS011;17676;52.254;4.490;2022-08-25T15:15:00;51.90;;;46.90;;
31004;SDS011;17676;52.254;4.490;2022-08-25T15:17:26;50.83;;;46.05;;
31004;SDS011;17676;52.254;4.490;2022-08-25T15:19:52;50.13;;;45.42;;
31004;SDS011;17676;52.254;4.490;2022-08-25T15:22:17;50.60;;;45.83;;
31004;SDS011;17676;52.254;4.490;2022-08-25T15:24:43;50.42;;;45.72;;
31004;SDS011;17676;52.254;4.490;2022-08-25T15:27:09;48.95;;;44.45;;
31004;SDS011;17676;52.254;4.490;2022-08-25T15:29:36;50.38;;;45.55;;
31004;SDS011;17676;52.254;4.490;2022-08-25T15:32:02;49.70;;;45.20;;
31004;SDS011;17676;52.254;4.490;2022-08-25T15:34:29;50.28;;;45.67;;
31004;SDS011;17676;52.254;4.490;2022-08-25T15:36:55;47.97;;;43.75;;
31004;SDS011;17676;52.254;4.490;2022-08-25T15:39:22;47.28;;;42.88;;
31004;SDS011;17676;52.254;4.490;2022-08-25T15:41:48;46.63;;;42.55;;
31004;SDS011;17676;52.254;4.490;2022-08-25T15:44:16;45.45;;;41.22;;
31004;SDS011;17676;52.254;4.490;2022-08-25T15:46:41;42.95;;;38.83;;
31004;SDS011;17676;52.254;4.490;2022-08-25T15:49:07;42.28;;;38.58;;
31004;SDS011;17676;52.254;4.490;2022-08-25T15:51:33;42.13;;;38.47;;
31004;SDS011;17676;52.254;4.490;2022-08-25T15:53:58;39.63;;;36.00;;
31004;SDS011;17676;52.254;4.490;2022-08-25T15:56:24;37.55;;;34.10;;
31004;SDS011;17676;52.254;4.490;2022-08-25T15:58:50;39.58;;;35.90;;
31004;SDS011;17676;52.254;4.490;2022-08-25T16:01:18;39.03;;;35.05;;
31004;SDS011;17676;52.254;4.490;2022-08-25T16:03:46;39.20;;;35.50;;
31004;SDS011;17676;52.254;4.490;2022-08-25T16:06:12;35.92;;;32.42;;
31004;SDS011;17676;52.254;4.490;2022-08-25T16:08:37;35.42;;;32.03;;
31004;SDS011;17676;52.254;4.490;2022-08-25T16:11:03;35.92;;;32.30;;
31004;SDS011;17676;52.254;4.490;2022-08-25T16:13:29;37.58;;;32.95;;
31004;SDS011;17676;52.254;4.490;2022-08-25T16:15:56;33.80;;;30.15;;
31004;SDS011;17676;52.254;4.490;2022-08-25T16:18:23;32.45;;;29.23;;
31004;SDS011;17676;52.254;4.490;2022-08-25T16:20:49;31.05;;;27.98;;
31004;SDS011;17676;52.254;4.490;2022-08-25T16:23:17;33.22;;;29.80;;
31004;SDS011;17676;52.254;4.490;2022-08-25T16:25:44;30.98;;;27.83;;
31004;SDS011;17676;52.254;4.490;2022-08-25T16:28:11;31.65;;;28.17;;
31004;SDS011;17676;52.254;4.490;2022-08-25T16:30:37;29.98;;;26.75;;
31004;SDS011;17676;52.254;4.490;2022-08-25T16:33:06;28.10;;;24.95;;
31004;SDS011;17676;52.254;4.490;2022-08-25T16:35:32;30.63;;;27.83;;
31004;SDS011;17676;52.254;4.490;2022-08-25T16:37:58;30.02;;;27.05;;
31004;SDS011;17676;52.254;4.490;2022-08-25T16:40:24;30.73;;;27.42;;